Time;durP1;ratioP1;P1;durP2;ratioP2;P2;SDS_P1;SDS_P2;PMS_P1;PMS_P2;Temp;Humidity;BMP_temperature;BMP_pressure;BME280_temperature;BME280_humidity;BME280_pressure;Samples;Min_cycle;Max_cycle;Signal;HPM_P1;HPM_P2
2024/03/30 00:01:58;;;;;;;;;;;;;;;11.87;nan;99683.00;5192902;22;19950;-68
2024/03/30 00:03:59;;;;;;;;;;;;;;;11.85;nan;99683.22;5192205;22;20212;-68
2024/03/30 00:06:01;;;;;;;;;;;;;;;11.85;nan;99690.50;5192605;22;20010;-68
2024/03/30 00:08:03;;;;;;;;;;;;;;;11.84;nan;99697.78;5192376;22;19942;-68
2024/03/30 00:10:04;;;;;;;;;;;;;;;11.83;nan;99700.69;5192242;22;19959;-68
2024/03/30 00:12:07;;;;;;;;;;;;;;;11.83;nan;99696.13;5191353;22;19969;-68
2024/03/30 00:14:08;;;;;;;;;;;;;;;11.81;nan;99697.38;5193268;22;19969;-68
2024/03/30 00:16:11;;;;;;;;;;;;;;;11.80;nan;99691.16;5192603;22;19977;-68
2024/03/30 00:18:12;;;;;;;;;;;;;;;11.79;nan;99684.06;5192711;22;19939;-68
2024/03/30 00:20:13;;;;;;;;;;;;;;;11.78;nan;99689.69;5192759;22;20002;-69
2024/03/30 00:22:14;;;;;;;;;;;;;;;11.76;nan;99678.25;5192585;22;19953;-68
2024/03/30 00:24:16;;;;;;;;;;;;;;;11.75;nan;99684.69;5191030;22;20343;-68
2024/03/30 00:26:17;;;;;;;;;;;;;;;11.73;nan;99682.19;5192123;22;19942;-68
2024/03/30 00:28:20;;;;;;;;;;;;;;;11.73;nan;99679.50;5192073;22;19923;-68
2024/03/30 00:30:23;;;;;;;;;;;;;;;11.71;nan;99684.28;5192491;22;19946;-68
2024/03/30 00:32:25;;;;;;;;;;;;;;;11.71;nan;99678.88;5166337;23;19958;-68
2024/03/30 00:34:26;;;;;;;;;;;;;;;11.69;nan;99670.97;5192254;22;19946;-68
2024/03/30 00:36:28;;;;;;;;;;;;;;;11.68;nan;99673.88;5192087;22;19954;-68
2024/03/30 00:38:29;;;;;;;;;;;;;;;11.66;nan;99675.94;5192030;22;20445;-68
2024/03/30 00:40:31;;;;;;;;;;;;;;;11.64;nan;99673.47;5191767;22;19938;-68
2024/03/30 00:42:32;;;;;;;;;;;;;;;11.63;nan;99670.97;5192196;22;19943;-68
2024/03/30 00:44:34;;;;;;;;;;;;;;;11.62;nan;99678.25;5191830;22;20029;-68
2024/03/30 00:46:36;;;;;;;;;;;;;;;11.60;nan;99671.38;5191005;22;20370;-68
2024/03/30 00:48:37;;;;;;;;;;;;;;;11.59;nan;99667.03;5192436;22;19971;-68
2024/03/30 00:50:39;;;;;;;;;;;;;;;11.58;nan;99671.59;5191778;22;20343;-68
2024/03/30 00:52:40;;;;;;;;;;;;;;;11.57;nan;99679.91;5192240;22;19955;-68
2024/03/30 00:54:42;;;;;;;;;;;;;;;11.54;nan;99664.97;5191783;22;20048;-68
2024/03/30 00:56:43;;;;;;;;;;;;;;;11.51;nan;99666.19;5190617;22;20327;-68
2024/03/30 00:58:45;;;;;;;;;;;;;;;11.49;nan;99671.00;5191645;22;19930;-68
2024/03/30 01:00:47;;;;;;;;;;;;;;;11.48;nan;99679.31;5191264;22;20323;-68
2024/03/30 01:02:49;;;;;;;;;;;;;;;11.45;nan;99667.03;5190481;22;19953;-68
2024/03/30 01:04:51;;;;;;;;;;;;;;;11.44;nan;99665.38;5191155;22;19942;-68
2024/03/30 01:06:53;;;;;;;;;;;;;;;11.43;nan;99652.09;5192262;22;19930;-68
2024/03/30 01:08:54;;;;;;;;;;;;;;;11.41;nan;99652.28;5190526;22;19950;-68
2024/03/30 01:10:59;;;;;;;;;;;;;;;11.40;nan;99657.91;5191724;22;19995;-68
2024/03/30 01:13:01;;;;;;;;;;;;;;;11.38;nan;99660.81;5191311;22;19947;-68
2024/03/30 01:15:03;;;;;;;;;;;;;;;11.38;nan;99660.81;5191650;22;19951;-68
2024/03/30 01:17:08;;;;;;;;;;;;;;;11.34;nan;99654.97;5192175;22;19968;-68
2024/03/30 01:19:09;;;;;;;;;;;;;;;11.33;nan;99664.16;5191834;22;20306;-68
2024/03/30 01:21:11;;;;;;;;;;;;;;;11.33;nan;99660.59;5191664;22;19975;-68
2024/03/30 01:23:13;;;;;;;;;;;;;;;11.32;nan;99661.66;5191979;22;19950;-68
2024/03/30 01:25:16;;;;;;;;;;;;;;;11.30;nan;99659.16;5192582;22;19958;-68
2024/03/30 01:27:18;;;;;;;;;;;;;;;11.28;nan;99658.50;5192692;22;19943;-68
2024/03/30 01:29:20;;;;;;;;;;;;;;;11.26;nan;99657.91;5192590;22;19954;-68
2024/03/30 01:31:22;;;;;;;;;;;;;;;11.24;nan;99653.72;5193288;22;19943;-68
2024/03/30 01:33:25;;;;;;;;;;;;;;;11.22;nan;99655.81;5193461;22;19947;-68
2024/03/30 01:35:27;;;;;;;;;;;;;;;11.20;nan;99647.09;5192925;22;19963;-68
2024/03/30 01:37:28;;;;;;;;;;;;;;;11.18;nan;99645.41;5191654;22;19943;-68
2024/03/30 01:39:30;;;;;;;;;;;;;;;11.17;nan;99646.47;5192642;22;20397;-68
2024/03/30 01:41:31;;;;;;;;;;;;;;;11.18;nan;99650.00;5191828;22;19953;-67
2024/03/30 01:43:33;;;;;;;;;;;;;;;11.19;nan;99640.88;5193023;22;19923;-68
2024/03/30 01:45:35;;;;;;;;;;;;;;;11.20;nan;99636.28;5192806;22;20566;-68
2024/03/30 01:47:36;;;;;;;;;;;;;;;11.18;nan;99631.09;5192809;22;19938;-68
2024/03/30 01:49:40;;;;;;;;;;;;;;;11.16;nan;99633.19;5193482;22;20303;-68
2024/03/30 01:51:43;;;;;;;;;;;;;;;11.15;nan;99631.50;5191297;22;20342;-68
2024/03/30 01:53:44;;;;;;;;;;;;;;;11.13;nan;99634.41;5192605;22;19943;-68
2024/03/30 01:55:48;;;;;;;;;;;;;;;11.08;nan;99633.34;5191630;22;19958;-68
2024/03/30 01:57:49;;;;;;;;;;;;;;;11.10;nan;99636.69;5164752;23;19950;-68
2024/03/30 01:59:51;;;;;;;;;;;;;;;11.06;nan;99636.25;5163464;23;19927;-68
2024/03/30 02:01:54;;;;;;;;;;;;;;;11.04;nan;99641.06;5192772;22;19943;-67
2024/03/30 02:03:59;;;;;;;;;;;;;;;11.02;nan;99656.66;5192930;22;20310;-67
2024/03/30 02:06:01;;;;;;;;;;;;;;;11.00;nan;99654.16;5192418;22;19943;-68
2024/03/30 02:08:04;;;;;;;;;;;;;;;10.98;nan;99655.38;5192966;22;19943;-69
2024/03/30 02:10:06;;;;;;;;;;;;;;;10.96;nan;99654.78;5193860;22;19989;-68
2024/03/30 02:12:08;;;;;;;;;;;;;;;10.93;nan;99653.31;5190627;22;19938;-68
2024/03/30 02:14:09;;;;;;;;;;;;;;;10.92;nan;99653.50;5192785;22;19950;-68
2024/03/30 02:16:11;;;;;;;;;;;;;;;10.89;nan;99653.91;5193084;22;19925;-68
2024/03/30 02:18:12;;;;;;;;;;;;;;;10.87;nan;99656.00;5190895;22;20075;-68
2024/03/30 02:20:14;;;;;;;;;;;;;;;10.84;nan;99648.31;5193091;22;19926;-68
2024/03/30 02:22:19;;;;;;;;;;;;;;;10.81;nan;99646.84;5192159;22;20222;-68
2024/03/30 02:24:23;;;;;;;;;;;;;;;10.78;nan;99640.00;5193618;22;19951;-68
2024/03/30 02:26:23;;;;;;;;;;;;;;;10.75;nan;99640.41;5193130;22;19943;-68
2024/03/30 02:28:27;;;;;;;;;;;;;;;10.74;nan;99635.22;5164663;23;19923;-68
2024/03/30 02:30:28;;;;;;;;;;;;;;;10.73;nan;99634.34;5192162;22;20272;-68
2024/03/30 02:32:30;;;;;;;;;;;;;;;10.72;nan;99635.41;5192884;22;20374;-68
2024/03/30 02:34:31;;;;;;;;;;;;;;;10.72;nan;99645.38;5191860;22;20288;-68
2024/03/30 02:36:33;;;;;;;;;;;;;;;10.71;nan;99635.63;5191082;22;19930;-68
2024/03/30 02:38:34;;;;;;;;;;;;;;;10.68;nan;99634.16;5191449;22;19954;-68
2024/03/30 02:40:38;;;;;;;;;;;;;;;10.65;nan;99626.47;5192057;22;19927;-68
2024/03/30 02:42:39;;;;;;;;;;;;;;;10.64;nan;99635.59;5194960;22;19947;-68
2024/03/30 02:44:41;;;;;;;;;;;;;;;10.61;nan;99622.50;5194738;22;20378;-68
2024/03/30 02:46:43;;;;;;;;;;;;;;;10.60;nan;99626.25;5194383;22;20338;-68
2024/03/30 02:48:45;;;;;;;;;;;;;;;10.58;nan;99625.59;5193452;22;19958;-68
2024/03/30 02:50:46;;;;;;;;;;;;;;;10.57;nan;99624.78;5194077;22;19957;-68
2024/03/30 02:52:48;;;;;;;;;;;;;;;10.56;nan;99625.81;5193820;22;19923;-68
2024/03/30 02:54:49;;;;;;;;;;;;;;;10.55;nan;99631.41;5194561;22;19976;-67
2024/03/30 02:56:52;;;;;;;;;;;;;;;10.55;nan;99618.75;5195173;22;19923;-68
2024/03/30 02:58:55;;;;;;;;;;;;;;;10.54;nan;99629.75;5194807;22;19958;-68
2024/03/30 03:00:57;;;;;;;;;;;;;;;10.52;nan;99629.97;5195218;22;20202;-68
2024/03/30 03:02:58;;;;;;;;;;;;;;;10.51;nan;99627.47;5194432;22;19966;-68
2024/03/30 03:05:03;;;;;;;;;;;;;;;10.49;nan;99633.06;5193091;22;19919;-68
2024/03/30 03:07:05;;;;;;;;;;;;;;;10.46;nan;99637.00;5193889;22;20342;-68
2024/03/30 03:09:07;;;;;;;;;;;;;;;10.45;nan;99632.66;5193742;22;19955;-68
2024/03/30 03:11:09;;;;;;;;;;;;;;;10.44;nan;99627.47;5194318;22;19939;-68
2024/03/30 03:13:11;;;;;;;;;;;;;;;10.43;nan;99626.63;5194291;22;19954;-68
2024/03/30 03:15:13;;;;;;;;;;;;;;;10.41;nan;99628.69;5193004;22;20347;-68
2024/03/30 03:17:14;;;;;;;;;;;;;;;10.39;nan;99625.38;5194700;22;20253;-68
2024/03/30 03:19:16;;;;;;;;;;;;;;;10.38;nan;99631.78;5194359;22;20351;-68
2024/03/30 03:21:17;;;;;;;;;;;;;;;10.36;nan;99628.47;5194610;22;20333;-68
2024/03/30 03:23:19;;;;;;;;;;;;;;;10.35;nan;99634.06;5191080;22;19923;-68
2024/03/30 03:25:20;;;;;;;;;;;;;;;10.34;nan;99635.09;5167493;23;20295;-68
2024/03/30 03:27:22;;;;;;;;;;;;;;;10.32;nan;99637.97;5193994;22;19930;-67
2024/03/30 03:29:24;;;;;;;;;;;;;;;10.31;nan;99639.00;5194379;22;20256;-67
2024/03/30 03:31:26;;;;;;;;;;;;;;;10.31;nan;99638.16;5193175;22;19950;-68
2024/03/30 03:33:27;;;;;;;;;;;;;;;10.28;nan;99637.56;5193795;22;19951;-68
2024/03/30 03:35:29;;;;;;;;;;;;;;;10.27;nan;99633.19;5194149;22;19967;-68
2024/03/30 03:37:30;;;;;;;;;;;;;;;10.26;nan;99625.28;5194352;22;20359;-68
2024/03/30 03:39:32;;;;;;;;;;;;;;;10.24;nan;99625.50;5194492;22;19925;-68
2024/03/30 03:41:33;;;;;;;;;;;;;;;10.24;nan;99630.06;5194370;22;19953;-68
2024/03/30 03:43:36;;;;;;;;;;;;;;;10.22;nan;99622.16;5193996;22;19934;-68
2024/03/30 03:45:38;;;;;;;;;;;;;;;10.20;nan;99626.09;5194351;22;19939;-68
2024/03/30 03:47:40;;;;;;;;;;;;;;;10.19;nan;99610.94;5192362;22;19958;-68
2024/03/30 03:49:41;;;;;;;;;;;;;;;10.18;nan;99611.97;5194676;22;20022;-68
2024/03/30 03:51:43;;;;;;;;;;;;;;;10.17;nan;99613.84;5194404;22;19946;-68
2024/03/30 03:53:44;;;;;;;;;;;;;;;10.16;nan;99608.66;5165558;23;19943;-68
2024/03/30 03:55:46;;;;;;;;;;;;;;;10.16;nan;99614.88;5166684;23;19961;-69
2024/03/30 03:57:47;;;;;;;;;;;;;;;10.15;nan;99607.00;5193955;22;19981;-68
2024/03/30 03:59:50;;;;;;;;;;;;;;;10.14;nan;99611.56;5194109;22;19923;-68
2024/03/30 04:01:52;;;;;;;;;;;;;;;10.14;nan;99616.09;5193853;22;20300;-68
2024/03/30 04:03:54;;;;;;;;;;;;;;;10.12;nan;99619.00;5193602;22;19939;-68
2024/03/30 04:05:55;;;;;;;;;;;;;;;10.11;nan;99630.84;5192928;22;19946;-68
2024/03/30 04:07:57;;;;;;;;;;;;;;;10.10;nan;99623.78;5194311;22;20255;-68
2024/03/30 04:09:58;;;;;;;;;;;;;;;10.09;nan;99631.03;5193492;22;19946;-68
2024/03/30 04:12:01;;;;;;;;;;;;;;;10.09;nan;99625.66;5194309;22;20343;-68
2024/03/30 04:14:02;;;;;;;;;;;;;;;10.08;nan;99623.16;5194558;22;19954;-68
2024/03/30 04:16:04;;;;;;;;;;;;;;;10.06;nan;99620.66;5194109;22;19977;-68
2024/03/30 04:18:06;;;;;;;;;;;;;;;10.05;nan;99616.28;5193414;22;20139;-68
2024/03/30 04:20:09;;;;;;;;;;;;;;;10.04;nan;99619.19;5193487;22;20302;-68
2024/03/30 04:22:10;;;;;;;;;;;;;;;10.03;nan;99623.75;5193637;22;19958;-68
2024/03/30 04:24:12;;;;;;;;;;;;;;;10.01;nan;99624.97;5192303;22;20322;-68
2024/03/30 04:26:14;;;;;;;;;;;;;;;10.00;nan;99624.16;5192846;22;19974;-69
2024/03/30 04:28:16;;;;;;;;;;;;;;;9.99;nan;99622.47;5191945;22;19951;-68
2024/03/30 04:30:18;;;;;;;;;;;;;;;9.98;nan;99623.50;5165027;23;19926;-68
2024/03/30 04:32:20;;;;;;;;;;;;;;;9.98;nan;99625.38;5192533;22;20263;-68
2024/03/30 04:34:23;;;;;;;;;;;;;;;9.98;nan;99633.47;5193312;22;19954;-67
2024/03/30 04:36:25;;;;;;;;;;;;;;;9.97;nan;99637.19;5192563;22;19958;-68
2024/03/30 04:38:28;;;;;;;;;;;;;;;9.96;nan;99628.28;5192244;22;20239;-67
2024/03/30 04:40:29;;;;;;;;;;;;;;;9.94;nan;99619.56;5192389;22;20359;-67
2024/03/30 04:42:31;;;;;;;;;;;;;;;9.93;nan;99631.38;5193103;22;19963;-67
2024/03/30 04:44:32;;;;;;;;;;;;;;;9.90;nan;99640.69;5192393;22;19946;-67
2024/03/30 04:46:34;;;;;;;;;;;;;;;9.89;nan;99633.66;5165926;23;20279;-67
2024/03/30 04:48:35;;;;;;;;;;;;;;;9.88;nan;99636.53;5193073;22;19943;-68
2024/03/30 04:50:38;;;;;;;;;;;;;;;9.87;nan;99637.56;5163825;23;19943;-67
2024/03/30 04:52:39;;;;;;;;;;;;;;;9.86;nan;99636.75;5193370;22;19958;-68
2024/03/30 04:54:41;;;;;;;;;;;;;;;9.86;nan;99638.63;5192738;22;19919;-68
2024/03/30 04:56:42;;;;;;;;;;;;;;;9.85;nan;99635.06;5193062;22;19950;-68
2024/03/30 04:58:44;;;;;;;;;;;;;;;9.84;nan;99636.13;5192870;22;19942;-68
2024/03/30 05:00:45;;;;;;;;;;;;;;;9.83;nan;99631.75;5193554;22;19955;-68
2024/03/30 05:02:47;;;;;;;;;;;;;;;9.82;nan;99630.06;5192668;22;19942;-67
2024/03/30 05:04:48;;;;;;;;;;;;;;;9.81;nan;99628.44;5193697;22;19950;-68
2024/03/30 05:06:51;;;;;;;;;;;;;;;9.80;nan;99634.03;5193119;22;19945;-67
2024/03/30 05:08:52;;;;;;;;;;;;;;;9.78;nan;99623.44;5166822;23;19939;-67
2024/03/30 05:10:54;;;;;;;;;;;;;;;9.77;nan;99629.84;5193324;22;19973;-67
2024/03/30 05:12:55;;;;;;;;;;;;;;;9.78;nan;99633.38;5193318;22;19950;-67
2024/03/30 05:14:57;;;;;;;;;;;;;;;9.77;nan;99629.03;5192946;22;19953;-67
2024/03/30 05:16:58;;;;;;;;;;;;;;;9.76;nan;99613.88;5193253;22;20343;-67
2024/03/30 05:19:09;;;;;;;;;;;;;;;9.77;nan;99623.63;5192449;22;19919;-67
2024/03/30 05:21:10;;;;;;;;;;;;;;;9.76;nan;99612.00;5193217;22;19961;-67
2024/03/30 05:23:12;;;;;;;;;;;;;;;9.77;nan;99612.84;5193744;22;19920;-67
2024/03/30 05:25:14;;;;;;;;;;;;;;;9.77;nan;99612.84;5192885;22;19939;-67
2024/03/30 05:27:15;;;;;;;;;;;;;;;9.78;nan;99617.19;5192807;22;19953;-67
2024/03/30 05:29:17;;;;;;;;;;;;;;;9.77;nan;99613.66;5193311;22;19923;-67
2024/03/30 05:31:19;;;;;;;;;;;;;;;9.78;nan;99606.41;5192592;22;19958;-67
2024/03/30 05:33:22;;;;;;;;;;;;;;;9.79;nan;99613.47;5191831;22;19947;-68
2024/03/30 05:35:23;;;;;;;;;;;;;;;9.80;nan;99615.16;5191257;22;19938;-68
2024/03/30 05:37:25;;;;;;;;;;;;;;;9.80;nan;99621.34;5194839;22;19950;-68
2024/03/30 05:39:27;;;;;;;;;;;;;;;9.81;nan;99619.47;5194567;22;20238;-68
2024/03/30 05:41:31;;;;;;;;;;;;;;;9.81;nan;99620.34;5194108;22;19977;-68
2024/03/30 05:43:32;;;;;;;;;;;;;;;9.83;nan;99625.53;5194664;22;19939;-67
2024/03/30 05:45:35;;;;;;;;;;;;;;;9.84;nan;99619.94;5194118;22;19950;-68
2024/03/30 05:47:35;;;;;;;;;;;;;;;9.84;nan;99611.84;5194227;22;19962;-68
2024/03/30 05:49:37;;;;;;;;;;;;;;;9.86;nan;99611.66;5193077;22;19923;-67
2024/03/30 05:51:38;;;;;;;;;;;;;;;9.88;nan;99614.97;5193632;22;19945;-68
2024/03/30 05:53:41;;;;;;;;;;;;;;;9.90;nan;99612.91;5193531;22;19923;-68
2024/03/30 05:55:43;;;;;;;;;;;;;;;9.91;nan;99611.88;5192818;22;19949;-67
2024/03/30 05:57:47;;;;;;;;;;;;;;;9.93;nan;99620.59;5193427;22;19943;-67
2024/03/30 05:59:48;;;;;;;;;;;;;;;9.93;nan;99623.28;5191372;22;19943;-67
2024/03/30 06:01:50;;;;;;;;;;;;;;;9.94;nan;99638.44;5193440;22;19967;-67
2024/03/30 06:03:51;;;;;;;;;;;;;;;9.97;nan;99623.69;5192833;22;19943;-67
2024/03/30 06:05:53;;;;;;;;;;;;;;;9.98;nan;99622.69;5192394;22;19961;-67
2024/03/30 06:07:54;;;;;;;;;;;;;;;9.98;nan;99623.50;5193115;22;19943;-68
2024/03/30 06:09:56;;;;;;;;;;;;;;;10.00;nan;99621.47;5192819;22;19946;-67
2024/03/30 06:11:59;;;;;;;;;;;;;;;10.03;nan;99620.22;5192808;22;19954;-67
2024/03/30 06:14:01;;;;;;;;;;;;;;;10.04;nan;99616.47;5165954;23;19947;-68
2024/03/30 06:16:02;;;;;;;;;;;;;;;10.06;nan;99620.66;5193383;22;20343;-68
2024/03/30 06:18:04;;;;;;;;;;;;;;;10.08;nan;99615.06;5192634;22;20363;-68
2024/03/30 06:20:09;;;;;;;;;;;;;;;10.08;nan;99621.28;5192279;22;19950;-67
2024/03/30 06:22:10;;;;;;;;;;;;;;;10.10;nan;99615.69;5193083;22;20359;-68
2024/03/30 06:24:12;;;;;;;;;;;;;;;10.13;nan;99614.47;5193408;22;19943;-67
2024/03/30 06:26:13;;;;;;;;;;;;;;;10.14;nan;99606.16;5192868;22;19970;-67
2024/03/30 06:28:19;;;;;;;;;;;;;;;10.16;nan;99614.06;5192835;22;20347;-67
2024/03/30 06:30:20;;;;;;;;;;;;;;;10.17;nan;99603.06;5193661;22;20322;-67
2024/03/30 06:32:23;;;;;;;;;;;;;;;10.20;nan;99616.16;5194008;22;19919;-67
2024/03/30 06:34:24;;;;;;;;;;;;;;;10.22;nan;99618.63;5194755;22;20437;-67
2024/03/30 06:36:25;;;;;;;;;;;;;;;10.24;nan;99613.88;5194501;22;19923;-67
2024/03/30 06:38:27;;;;;;;;;;;;;;;10.25;nan;99608.28;5194014;22;19923;-67
2024/03/30 06:45:09;;;;;;;;;;;;;;;10.32;nan;99624.47;5194009;22;19953;-68
2024/03/30 06:47:11;;;;;;;;;;;;;;;10.34;nan;99630.53;5193439;22;20247;-68
2024/03/30 06:49:12;;;;;;;;;;;;;;;10.36;nan;99631.19;5194384;22;19949;-68
2024/03/30 06:51:14;;;;;;;;;;;;;;;10.39;nan;99632.63;5194177;22;20307;-67
2024/03/30 06:53:16;;;;;;;;;;;;;;;10.41;nan;99631.38;5194595;22;19942;-67
2024/03/30 06:55:17;;;;;;;;;;;;;;;10.43;nan;99634.72;5193700;22;19958;-67
2024/03/30 06:57:19;;;;;;;;;;;;;;;10.44;nan;99633.69;5193650;22;19923;-67
2024/03/30 06:59:20;;;;;;;;;;;;;;;10.48;nan;99627.88;5194330;22;19961;-68
2024/03/30 07:01:27;;;;;;;;;;;;;;;10.51;nan;99627.47;5166881;23;19919;-67
2024/03/30 07:03:28;;;;;;;;;;;;;;;10.51;nan;99624.78;5194213;22;20347;-67
2024/03/30 07:05:30;;;;;;;;;;;;;;;10.55;nan;99626.00;5193724;22;19998;-68
2024/03/30 07:07:31;;;;;;;;;;;;;;;10.58;nan;99628.31;5193700;22;19943;-68
2024/03/30 07:09:32;;;;;;;;;;;;;;;10.60;nan;99623.56;5194278;22;19927;-68
2024/03/30 07:11:34;;;;;;;;;;;;;;;10.63;nan;99617.75;5194282;22;20547;-67
2024/03/30 07:13:35;;;;;;;;;;;;;;;10.64;nan;99611.28;5194027;22;19946;-67
2024/03/30 07:15:37;;;;;;;;;;;;;;;10.67;nan;99605.47;5193030;22;19923;-67
2024/03/30 07:17:39;;;;;;;;;;;;;;;10.70;nan;99612.34;5193949;22;19955;-67
2024/03/30 07:19:41;;;;;;;;;;;;;;;10.72;nan;99610.25;5194237;22;19951;-67
2024/03/30 07:21:42;;;;;;;;;;;;;;;10.75;nan;99610.69;5193879;22;19950;-68
2024/03/30 07:23:46;;;;;;;;;;;;;;;10.77;nan;99611.31;5192668;22;20566;-67
2024/03/30 07:25:47;;;;;;;;;;;;;;;10.79;nan;99609.22;5193967;22;20355;-67
2024/03/30 07:27:49;;;;;;;;;;;;;;;10.82;nan;99606.13;5193713;22;19927;-67
2024/03/30 07:29:50;;;;;;;;;;;;;;;10.84;nan;99600.50;5193411;22;19947;-67
2024/03/30 07:31:54;;;;;;;;;;;;;;;10.88;nan;99603.63;5194297;22;19923;-67
2024/03/30 07:33:56;;;;;;;;;;;;;;;10.91;nan;99600.50;5193701;22;19938;-67
2024/03/30 07:35:58;;;;;;;;;;;;;;;10.92;nan;99592.19;5194765;22;19949;-67
2024/03/30 07:37:59;;;;;;;;;;;;;;;10.95;nan;99599.88;5194161;22;19955;-67
2024/03/30 07:40:01;;;;;;;;;;;;;;;10.98;nan;99604.88;5194130;22;20389;-68
2024/03/30 07:42:02;;;;;;;;;;;;;;;11.02;nan;99604.47;5194475;22;19974;-68
2024/03/30 07:44:04;;;;;;;;;;;;;;;11.04;nan;99610.50;5195655;22;20322;-67
2024/03/30 07:46:05;;;;;;;;;;;;;;;11.07;nan;99605.50;5193111;22;19946;-68
2024/03/30 07:48:07;;;;;;;;;;;;;;;11.10;nan;99609.69;5194553;22;19919;-67
2024/03/30 07:50:10;;;;;;;;;;;;;;;11.12;nan;99602.19;5193930;22;19947;-67
2024/03/30 07:52:12;;;;;;;;;;;;;;;11.16;nan;99603.44;5194566;22;20315;-67
2024/03/30 07:54:13;;;;;;;;;;;;;;;11.19;nan;99616.53;5194289;22;20268;-67
2024/03/30 07:56:15;;;;;;;;;;;;;;;11.23;nan;99614.25;5194771;22;19937;-67
2024/03/30 07:58:15;;;;;;;;;;;;;;;11.25;nan;99612.16;5193577;22;19942;-68
2024/03/30 08:00:18;;;;;;;;;;;;;;;11.27;nan;99613.63;5194052;22;19990;-67
2024/03/30 08:02:19;;;;;;;;;;;;;;;11.29;nan;99608.81;5194718;22;19943;-67
2024/03/30 08:04:21;;;;;;;;;;;;;;;11.34;nan;99608.19;5194386;22;20410;-68
2024/03/30 08:06:23;;;;;;;;;;;;;;;11.36;nan;99615.06;5193878;22;19970;-67
2024/03/30 08:08:26;;;;;;;;;;;;;;;11.40;nan;99598.44;5193532;22;19973;-68
2024/03/30 08:10:27;;;;;;;;;;;;;;;11.42;nan;99597.16;5194022;22;19951;-67
2024/03/30 08:12:29;;;;;;;;;;;;;;;11.45;nan;99602.16;5193336;22;19951;-68
2024/03/30 08:14:30;;;;;;;;;;;;;;;11.48;nan;99603.59;5190559;22;19973;-69
2024/03/30 08:16:32;;;;;;;;;;;;;;;11.51;nan;99604.00;5189726;22;19957;-69
2024/03/30 08:18:34;;;;;;;;;;;;;;;11.56;nan;99606.06;5192200;22;19959;-69
2024/03/30 08:20:36;;;;;;;;;;;;;;;11.60;nan;99609.19;5192330;22;19962;-68
2024/03/30 08:22:38;;;;;;;;;;;;;;;11.63;nan;99603.34;5192754;22;20347;-67
2024/03/30 08:24:40;;;;;;;;;;;;;;;11.66;nan;99611.91;5191948;22;19950;-68
2024/03/30 08:26:41;;;;;;;;;;;;;;;11.69;nan;99608.78;5193563;22;19946;-68
2024/03/30 08:28:46;;;;;;;;;;;;;;;11.73;nan;99610.00;5192539;22;20311;-68
2024/03/30 08:30:49;;;;;;;;;;;;;;;11.78;nan;99613.94;5193245;22;20387;-68
2024/03/30 08:32:52;;;;;;;;;;;;;;;11.80;nan;99603.72;5192706;22;19943;-68
2024/03/30 08:34:53;;;;;;;;;;;;;;;11.83;nan;99608.72;5194032;22;20290;-68
2024/03/30 08:36:55;;;;;;;;;;;;;;;11.86;nan;99611.81;5192477;22;19954;-68
2024/03/30 08:38:57;;;;;;;;;;;;;;;11.88;nan;99601.63;5192760;22;19942;-68
2024/03/30 17:31:30;;;;;;;;;;;;;;;15.79;nan;99296.59;5164049;22;19928;-67
2024/03/30 17:33:31;;;;;;;;;;;;;;;15.78;nan;99297.66;5165359;23;19950;-66
2024/03/30 17:35:33;;;;;;;;;;;;;;;15.78;nan;99295.78;5165698;23;19920;-67
